YYT weather

St. John's International Airport
St. John's, Newfoundland and Labrador, Canada

Public forecast

Using degrees Celsius for public forecast. Weather courtesy of forecast.io.

Current aviation weather report (METAR) for St. John's International Airport

Retrieved 2019/12/09 01:00 UTC (52 minutes ago):

CYYT 090100Z 30018KT 15SM BKN024 M04/M09 A3013 RMK SC7 SLP213

Aviation forecast (TAF) for St. John's International Airport

Retrieved 2019-12-09 00:39 UTC (1 hour ago):

TAF CYYT 082338Z 0900/0924 29015G25KT P6SM BKN025 TEMPO 0900/0909 BKN020 BECMG 0903/0905 29012G22KT FM090900 26015G25KT P6SM SCT020 OVC100 TEMPO 0909/0912 BKN020 FM091200 25018G28KT P6SM SCT020 BKN030 FM091500 24020G30KT 5SM -RASN BR OVC015 FM092100 25015G25KT P6SM SCT007 OVC015 RMK NXT FCST BY 090600Z